Terminal Aerodrome Forecast
Issued by NWS Sioux Falls, SD

Home | Current Version | Previous Version | Graphics & Text | Print | Product List | Glossary On
Versions: 1 2 3 4 5 6 7 8 9 10 11 12 13
540
FTUS43 KFSD 240527
TAFHON
TAF
KHON 240527Z 2406/2506 16010KT P6SM BKN140 WS015/19040KT
     FM240900 16009KT 6SM -TSRA BKN070CB
     FM241100 16011KT P6SM FEW090 SCT140
     FM241300 17012KT P6SM SCT090 BKN130
     FM241700 18013G19KT P6SM VCTS FEW060CB SCT150
     FM250000 20011KT P6SM FEW050
     FM250300 19007KT P6SM SKC=

USA.gov is the U.S. government's official web portal to all federal, state and local government web resources and services.